Time;durP1;ratioP1;P1;durP2;ratioP2;P2;SDS_P1;SDS_P2;PMS_P1;PMS_P2;Temp;Humidity;BMP_temperature;BMP_pressure;BME280_temperature;BME280_humidity;BME280_pressure;Samples;Min_cycle;Max_cycle;Signal;HPM_P1;HPM_P2
2021/06/02 00:00:05;;;;;;;23.38;10.98;;;;;;;9.48;83.58;94750.13;1735789;82;21517;-54
2021/06/02 00:02:32;;;;;;;15.55;9.40;;;;;;;9.51;83.56;94744.34;1727759;83;21140;-54
2021/06/02 00:05:01;;;;;;;13.85;7.78;;;;;;;9.56;83.64;94745.15;1727612;83;20994;-54
2021/06/02 00:07:28;;;;;;;9.43;7.08;;;;;;;9.58;83.52;94746.88;1728229;83;21042;-55
2021/06/02 00:09:55;;;;;;;11.20;6.62;;;;;;;9.57;83.46;94746.09;1727307;83;21417;-54
2021/06/02 00:12:23;;;;;;;13.35;7.33;;;;;;;9.60;83.33;94748.58;1727865;82;20982;-54
2021/06/02 00:14:50;;;;;;;8.78;6.83;;;;;;;9.60;83.14;94744.45;1727917;83;21297;-55
2021/06/02 00:17:17;;;;;;;11.28;9.00;;;;;;;9.61;83.10;94741.87;1727959;83;21034;-55
2021/06/02 00:19:45;;;;;;;10.68;8.58;;;;;;;9.59;83.22;94742.92;1727787;83;21081;-55
2021/06/02 00:22:11;;;;;;;12.20;8.83;;;;;;;9.57;83.12;94739.82;1727585;82;20998;-54
2021/06/02 00:24:40;;;;;;;15.40;8.15;;;;;;;9.54;83.20;94747.57;1727757;83;21478;-54
2021/06/02 00:27:11;;;;;;;14.03;9.23;;;;;;;9.56;83.26;94741.03;1727755;83;21143;-54
2021/06/02 00:29:40;;;;;;;20.27;12.10;;;;;;;9.55;83.09;94742.24;1726471;82;21085;-54
2021/06/02 00:32:09;;;;;;;15.85;9.43;;;;;;;9.53;83.30;94741.92;1727485;82;21006;-54
2021/06/02 00:34:36;;;;;;;20.05;11.55;;;;;;;9.55;83.22;94744.98;1727754;83;20989;-55
2021/06/02 00:37:05;;;;;;;17.42;10.60;;;;;;;9.49;83.05;94741.27;1727828;83;20971;-55
2021/06/02 00:39:32;;;;;;;16.97;9.98;;;;;;;9.43;83.09;94739.67;1727755;83;21135;-55
2021/06/02 00:41:59;;;;;;;15.83;8.58;;;;;;;9.41;83.20;94741.33;1727733;83;21013;-54
2021/06/02 00:44:26;;;;;;;16.93;10.58;;;;;;;9.41;83.41;94748.95;1727862;82;21413;-54
2021/06/02 00:46:59;;;;;;;20.50;11.70;;;;;;;9.41;83.40;94738.59;1727805;83;21042;-55
2021/06/02 00:49:26;;;;;;;16.85;11.33;;;;;;;9.42;83.71;94736.01;1727865;83;21084;-54
2021/06/02 00:52:00;;;;;;;18.70;9.98;;;;;;;9.50;83.62;94742.80;1727767;83;21123;-55
2021/06/02 00:54:31;;;;;;;17.50;9.80;;;;;;;9.51;83.44;94742.37;1711435;83;21489;-54
2021/06/02 00:57:19;;;;;;;17.95;9.33;;;;;;;9.52;83.56;94741.75;1727626;83;20998;-55
2021/06/02 01:00:06;;;;;;;15.48;9.33;;;;;;;9.54;83.52;94733.84;1727826;83;20967;-53
2021/06/02 01:02:35;;;;;;;11.65;8.80;;;;;;;9.60;83.34;94733.47;1727797;83;20959;-53
2021/06/02 01:05:01;;;;;;;10.85;8.98;;;;;;;9.59;83.29;94749.16;1727715;82;21974;-55
2021/06/02 01:07:28;;;;;;;12.33;9.30;;;;;;;9.58;83.34;94742.76;1727541;83;20998;-54
2021/06/02 01:09:56;;;;;;;11.18;8.60;;;;;;;9.60;83.37;94737.59;1727886;83;20970;-53
2021/06/02 01:12:27;;;;;;;9.98;7.90;;;;;;;9.60;83.04;94732.84;1727704;83;20978;-55
2021/06/02 01:14:55;;;;;;;11.15;7.90;;;;;;;9.60;82.93;94736.22;1728173;83;21014;-54
2021/06/02 01:17:25;;;;;;;8.55;7.45;;;;;;;9.56;82.63;94735.54;1727775;83;21450;-55
2021/06/02 01:19:57;;;;;;;9.80;7.55;;;;;;;9.52;83.06;94734.89;1727539;83;20990;-54
2021/06/02 01:22:28;;;;;;;18.85;12.05;;;;;;;9.56;83.19;94734.95;1727651;83;21093;-54
2021/06/02 01:24:55;;;;;;;20.02;11.65;;;;;;;9.56;82.99;94735.54;1727956;83;20960;-55
2021/06/02 01:27:21;;;;;;;17.40;11.40;;;;;;;9.52;82.97;94739.00;1727759;83;20982;-55
2021/06/02 01:29:50;;;;;;;15.88;11.20;;;;;;;9.46;83.10;94737.41;1727731;83;20982;-54
2021/06/02 01:32:43;;;;;;;15.43;10.80;;;;;;;9.40;83.23;94739.80;1727457;82;20963;-54
2021/06/02 01:35:19;;;;;;;;;;;;;;;9.34;83.49;94743.69;1730389;83;20985;-54
2021/06/02 01:38:17;;;;;;;18.15;10.75;;;;;;;9.32;83.84;94738.46;1727902;82;20091;-55
2021/06/02 01:41:04;;;;;;;13.28;9.55;;;;;;;9.28;83.98;94742.68;1726377;83;21423;-55
2021/06/02 01:44:17;;;;;;;17.60;11.88;;;;;;;9.27;84.03;94744.50;1727690;83;21164;-55
2021/06/02 01:47:17;;;;;;;13.25;8.35;;;;;;;9.24;84.21;94743.39;1727630;83;20959;-54
2021/06/02 01:50:06;;;;;;;15.70;10.72;;;;;;;9.29;84.44;94744.83;1727879;83;21442;-55
2021/06/02 01:53:02;;;;;;;16.32;9.38;;;;;;;9.33;84.47;94741.37;1727883;83;20986;-55
2021/06/02 01:56:22;;;;;;;11.80;8.78;;;;;;;9.36;83.95;94737.74;1727708;83;21065;-54
2021/06/02 01:59:28;;;;;;;12.93;7.60;;;;;;;9.26;83.87;94739.61;1727666;83;21149;-55
2021/06/02 02:02:26;;;;;;;8.03;6.80;;;;;;;9.22;84.25;94741.70;1727613;82;21059;-54
2021/06/02 02:05:40;;;;;;;13.58;7.22;;;;;;;9.22;84.28;94738.20;1727677;83;20990;-54
2021/06/02 02:08:24;;;;;;;8.33;7.50;;;;;;;9.22;84.49;94735.45;1727877;83;21048;-54
2021/06/02 02:10:56;;;;;;;8.33;7.62;;;;;;;9.30;84.60;94736.77;1727654;82;21419;-54
2021/06/02 02:13:57;;;;;;;10.75;7.17;;;;;;;9.37;84.48;94740.66;1727891;82;21128;-54
2021/06/02 02:17:01;;;;;;;12.68;8.83;;;;;;;9.42;84.04;94739.50;1727559;82;21058;-54
2021/06/02 02:19:56;;;;;;;11.08;9.98;;;;;;;9.40;84.00;94739.80;1727619;82;21034;-53
2021/06/02 02:23:06;;;;;;;13.10;8.85;;;;;;;9.42;84.04;94738.13;1727475;82;20958;-52
2021/06/02 02:25:59;;;;;;;13.18;9.50;;;;;;;9.45;83.98;94736.49;1682269;82;21407;-52
2021/06/02 02:28:52;;;;;;;10.68;7.33;;;;;;;9.51;83.72;94737.47;1726116;82;21169;-52
2021/06/02 02:32:06;;;;;;;10.18;6.10;;;;;;;9.45;83.40;94743.36;1727519;82;21034;-56
2021/06/02 02:34:59;;;;;;;7.30;6.62;;;;;;;9.37;83.50;94737.91;1714146;83;21422;-55
2021/06/02 02:37:53;;;;;;;7.75;6.60;;;;;;;9.28;83.69;94735.06;1727856;82;21018;-55
2021/06/02 02:40:57;;;;;;;8.90;7.75;;;;;;;9.23;83.99;94739.73;1691113;82;21003;-55
2021/06/02 02:43:38;;;;;;;9.68;8.10;;;;;;;9.28;84.43;94747.41;1714987;82;21142;-56
2021/06/02 02:46:37;;;;;;;15.28;9.58;;;;;;;9.33;84.18;94749.61;1727692;83;21003;-54
2021/06/02 02:49:43;;;;;;;13.22;10.32;;;;;;;9.35;84.45;94747.97;1727918;83;21011;-55
2021/06/02 02:52:34;;;;;;;16.37;12.55;;;;;;;9.46;84.38;94749.02;1727571;83;20982;-55
2021/06/02 02:55:09;;;;;;;19.27;12.82;;;;;;;9.49;84.08;94750.28;1727646;83;21485;-55
2021/06/02 02:57:56;;;;;;;20.15;10.28;;;;;;;9.47;83.87;94747.80;1727779;83;21417;-56
2021/06/02 03:00:35;;;;;;;15.58;10.53;;;;;;;9.39;83.71;94743.72;1734500;82;21001;-52
2021/06/02 03:03:25;;;;;;;12.75;9.80;;;;;;;9.36;83.83;94746.77;1727848;83;21495;-53
2021/06/02 03:06:12;;;;;;;14.00;11.03;;;;;;;9.33;83.91;94752.35;1727653;83;20994;-54
2021/06/02 03:08:46;;;;;;;18.82;11.60;;;;;;;9.33;84.20;94749.61;1727664;82;20992;-54
2021/06/02 03:11:35;;;;;;;17.87;10.68;;;;;;;9.39;84.26;94750.00;1727445;82;21213;-54
2021/06/02 03:14:16;;;;;;;19.17;10.95;;;;;;;9.48;84.20;94755.62;1727671;83;20959;-55
2021/06/02 03:16:47;;;;;;;15.60;10.78;;;;;;;9.57;84.05;94750.80;1727531;83;20958;-55
2021/06/02 03:19:18;;;;;;;15.20;10.20;;;;;;;9.66;83.87;94755.05;1727179;82;20994;-55
2021/06/02 03:22:12;;;;;;;15.88;9.98;;;;;;;9.72;83.87;94761.52;1727672;81;20988;-54
2021/06/02 03:25:05;;;;;;;10.10;7.90;;;;;;;9.73;83.38;94750.69;1728298;83;21244;-54
2021/06/02 03:27:47;;;;;;;15.93;8.00;;;;;;;9.67;83.39;94756.58;1727797;83;20982;-54
2021/06/02 03:30:38;;;;;;;21.77;8.98;;;;;;;9.69;83.08;94758.28;1726969;83;21048;-55
2021/06/02 03:33:51;;;;;;;16.87;11.95;;;;;;;9.75;83.26;94755.91;1711062;83;20966;-56
2021/06/02 03:37:11;;;;;;;17.70;13.08;;;;;;;9.81;82.84;94765.13;1727305;82;20986;-55
2021/06/02 03:40:04;;;;;;;19.62;15.48;;;;;;;9.77;82.69;94771.35;1727629;82;21813;-55
2021/06/02 03:43:26;;;;;;;18.05;12.13;;;;;;;9.75;82.87;94766.13;1727774;83;20982;-54
2021/06/02 03:46:45;;;;;;;19.48;11.10;;;;;;;9.74;82.71;94765.37;1727590;83;20969;-54
2021/06/02 03:49:46;;;;;;;13.25;11.50;;;;;;;9.72;82.81;94769.16;1727705;82;21442;-54
2021/06/02 03:52:42;;;;;;;16.85;12.07;;;;;;;9.69;82.85;94774.77;1727600;83;21009;-55
2021/06/02 03:55:37;;;;;;;11.85;10.70;;;;;;;9.68;83.23;94779.50;1727391;82;21139;-55
2021/06/02 03:58:16;;;;;;;13.25;9.78;;;;;;;9.79;83.07;94779.16;1727480;83;20943;-54
2021/06/02 04:00:48;;;;;;;17.45;8.78;;;;;;;9.81;82.67;94776.74;1727416;82;21018;-55
2021/06/02 04:03:24;;;;;;;13.95;9.55;;;;;;;9.75;82.74;94773.77;1727850;81;20950;-54
2021/06/02 04:06:05;;;;;;;15.83;9.80;;;;;;;9.73;82.78;94775.41;1727655;83;21042;-55
2021/06/02 04:08:52;;;;;;;11.77;7.87;;;;;;;9.72;82.60;94769.16;1727896;83;21232;-54
2021/06/02 04:11:47;;;;;;;9.78;8.78;;;;;;;9.76;82.53;94778.67;1727497;82;21053;-55
2021/06/02 04:14:31;;;;;;;10.90;8.25;;;;;;;9.84;82.00;94784.09;1727791;83;20954;-55
2021/06/02 04:16:58;;;;;;;11.85;7.53;;;;;;;9.87;81.72;94777.12;1727711;83;21061;-55
2021/06/02 04:19:32;;;;;;;9.68;8.45;;;;;;;9.92;81.64;94783.43;1727757;83;21568;-54
2021/06/02 04:22:08;;;;;;;8.83;7.28;;;;;;;9.95;81.50;94790.78;1726823;82;21154;-54
2021/06/02 04:24:37;;;;;;;13.25;7.75;;;;;;;10.00;81.62;94783.35;1727540;82;20954;-54
2021/06/02 04:27:05;;;;;;;10.58;7.17;;;;;;;10.01;81.24;94788.26;1727667;82;20967;-55
2021/06/02 04:29:32;;;;;;;9.65;8.03;;;;;;;10.04;81.23;94790.15;1727740;83;21428;-55
2021/06/02 04:32:03;;;;;;;13.22;8.20;;;;;;;10.07;81.19;94794.75;1727643;83;20947;-55
2021/06/02 04:34:31;;;;;;;10.18;8.85;;;;;;;10.10;81.41;94792.48;1721872;82;21719;-55
2021/06/02 04:37:03;;;;;;;9.55;8.25;;;;;;;10.17;81.38;94790.91;1714855;83;21505;-54
2021/06/02 04:39:30;;;;;;;11.38;7.37;;;;;;;10.19;81.39;94785.72;1715295;83;21019;-54
2021/06/02 04:42:00;;;;;;;9.68;7.97;;;;;;;10.21;81.23;94792.92;1715001;83;21014;-54
2021/06/02 04:44:28;;;;;;;13.03;8.33;;;;;;;10.26;81.09;94797.85;1714868;83;21002;-55
2021/06/02 04:46:54;;;;;;;27.55;11.00;;;;;;;10.34;81.06;94795.80;1714908;83;21797;-55
2021/06/02 04:49:40;;;;;;;9.70;7.95;;;;;;;10.40;80.86;94794.63;1714831;83;21439;-54
2021/06/02 04:52:54;;;;;;;13.45;8.18;;;;;;;10.42;80.39;94789.45;1691350;82;20943;-55
2021/06/02 04:55:28;;;;;;;29.32;8.65;;;;;;;10.42;80.17;94797.70;1714999;83;21003;-54
2021/06/02 04:58:30;;;;;;;14.43;8.35;;;;;;;10.49;79.99;94797.48;1714926;82;20963;-54
2021/06/02 05:01:10;;;;;;;11.33;7.37;;;;;;;10.48;79.84;94798.08;1714391;82;21154;-55
2021/06/02 05:04:28;;;;;;;15.80;8.68;;;;;;;10.49;79.87;94796.86;1714404;82;21066;-56
2021/06/02 05:07:22;;;;;;;13.32;9.00;;;;;;;10.49;79.90;94798.86;1714631;83;21463;-53
2021/06/02 05:10:46;;;;;;;13.18;8.95;;;;;;;10.50;80.04;94808.64;1714859;83;21019;-55
2021/06/02 05:13:40;;;;;;;19.23;9.00;;;;;;;10.52;79.96;94806.22;1714726;83;20958;-55
2021/06/02 05:16:42;;;;;;;14.43;8.00;;;;;;;10.55;80.23;94806.07;1689145;83;21574;-54
2021/06/02 05:23:03;;;;;;;13.38;8.73;;;;;;;10.84;79.78;94812.89;1711601;82;21475;-55
2021/06/02 05:25:53;;;;;;;26.80;11.38;;;;;;;10.94;79.29;94814.52;1697498;83;21516;-55
2021/06/02 05:28:53;;;;;;;13.95;8.15;;;;;;;11.07;79.44;94809.72;1701840;83;21501;-54
2021/06/02 05:31:57;;;;;;;13.28;8.50;;;;;;;11.27;79.26;94806.62;1696956;83;21253;-54
2021/06/02 05:34:52;;;;;;;15.47;8.53;;;;;;;11.39;79.05;94813.42;1650473;86;21085;-55
2021/06/02 05:37:45;;;;;;;18.50;9.05;;;;;;;11.44;78.24;94809.33;1697917;83;20998;-54
2021/06/02 05:41:06;;;;;;;17.30;7.28;;;;;;;11.47;77.96;94811.95;1699704;81;21060;-54
2021/06/02 05:44:04;;;;;;;39.38;10.70;;;;;;;11.48;77.59;94812.12;1701359;83;21111;-55
2021/06/02 05:47:23;;;;;;;20.17;9.80;;;;;;;11.49;77.27;94812.90;1727602;81;22120;-55
2021/06/02 05:50:18;;;;;;;19.73;8.50;;;;;;;11.54;77.50;94813.06;1714567;82;21045;-59
2021/06/02 05:53:06;;;;;;;17.55;9.10;;;;;;;11.72;77.62;94818.69;1724886;82;21088;-54
2021/06/02 05:55:52;;;;;;;20.70;9.40;;;;;;;11.90;76.85;94814.64;1710662;81;21118;-54
2021/06/02 05:58:47;;;;;;;17.17;7.58;;;;;;;12.05;75.37;94819.75;1683954;83;21049;-56
2021/06/02 06:01:39;;;;;;;13.90;9.33;;;;;;;12.16;72.93;94815.19;1649606;85;21529;-58
2021/06/02 06:04:21;;;;;;;9.28;8.00;;;;;;;12.25;73.14;94820.75;1661540;84;20961;-57
2021/06/02 06:07:22;;;;;;;11.55;7.87;;;;;;;12.42;74.28;94817.25;1723639;82;21104;-52
2021/06/02 06:10:12;;;;;;;15.75;8.83;;;;;;;12.49;73.42;94816.95;1714712;81;21087;-54
2021/06/02 06:13:12;;;;;;;16.27;8.70;;;;;;;12.57;72.24;94829.24;1693428;82;20993;-58
2021/06/02 06:15:54;;;;;;;15.75;8.98;;;;;;;12.69;71.77;94825.59;1713891;81;20994;-55
2021/06/02 06:18:27;;;;;;;16.30;7.47;;;;;;;12.82;72.66;94819.30;1699189;82;21185;-56
2021/06/02 06:21:03;;;;;;;;;;;;;;;12.93;71.15;94825.92;1716000;82;21440;-56
2021/06/02 06:23:56;;;;;;;25.97;7.67;;;;;;;12.98;66.81;94822.56;1717211;82;20767;-55
2021/06/02 06:26:50;;;;;;;10.53;6.00;;;;;;;13.04;65.20;94822.73;1720915;82;21116;-57
2021/06/02 06:29:42;;;;;;;5.03;3.92;;;;;;;13.09;64.73;94822.85;1715271;82;21123;-56
2021/06/02 06:32:08;;;;;;;5.80;3.80;;;;;;;13.11;61.80;94827.93;1713815;82;21043;-57
2021/06/02 06:34:35;;;;;;;4.67;4.25;;;;;;;13.01;60.16;94817.50;1714481;82;21019;-56
2021/06/02 06:37:04;;;;;;;25.02;6.53;;;;;;;12.94;60.77;94830.22;1696638;83;21522;-56
2021/06/02 06:39:51;;;;;;;5.28;4.42;;;;;;;12.94;60.75;94829.46;1691479;83;22421;-60
2021/06/02 06:42:22;;;;;;;7.47;3.72;;;;;;;12.96;60.01;94828.38;1685976;83;21118;-55
2021/06/02 06:44:53;;;;;;;9.68;7.17;;;;;;;12.96;59.60;94818.72;1684597;83;21000;-54
2021/06/02 06:47:19;;;;;;;6.75;5.55;;;;;;;12.96;59.92;94825.63;1690690;83;21059;-58
2021/06/02 06:49:49;;;;;;;7.05;4.92;;;;;;;13.01;59.65;94823.63;1696837;83;21005;-55
2021/06/02 06:52:16;;;;;;;8.73;5.55;;;;;;;13.06;59.32;94816.88;1696077;81;21048;-57
2021/06/02 06:54:42;;;;;;;11.33;5.75;;;;;;;13.18;59.79;94819.32;1694671;83;21106;-55
2021/06/02 06:57:10;;;;;;;10.85;4.22;;;;;;;13.31;59.68;94821.31;1688849;83;22054;-60
2021/06/02 06:59:38;;;;;;;5.47;3.90;;;;;;;13.44;58.81;94815.76;1686297;81;21584;-56
2021/06/02 07:02:05;;;;;;;5.97;4.15;;;;;;;13.59;59.58;94822.81;1694638;83;21005;-58
2021/06/02 07:04:32;;;;;;;5.25;3.85;;;;;;;13.79;58.15;94823.06;1688781;83;20996;-58
2021/06/02 07:07:01;;;;;;;10.00;4.55;;;;;;;13.97;58.98;94824.38;1688191;83;21019;-59
2021/06/02 07:09:28;;;;;;;6.78;3.75;;;;;;;14.14;57.49;94818.63;1688046;83;21011;-57
2021/06/02 07:11:56;;;;;;;5.17;3.70;;;;;;;14.37;56.91;94819.31;1689116;83;21561;-60
2021/06/02 07:14:25;;;;;;;5.95;3.92;;;;;;;14.64;56.10;94816.52;1695346;83;21799;-55
2021/06/02 07:16:53;;;;;;;6.03;3.52;;;;;;;14.87;55.27;94822.69;1697441;83;21538;-54
2021/06/02 07:19:21;;;;;;;7.60;4.62;;;;;;;14.99;54.68;94823.68;1689735;83;21262;-55
2021/06/02 07:21:48;;;;;;;7.65;3.40;;;;;;;15.00;54.82;94825.96;1690137;83;21527;-54
2021/06/02 07:24:18;;;;;;;5.17;3.40;;;;;;;15.15;53.93;94827.41;1673825;84;21025;-56
2021/06/02 07:26:46;;;;;;;3.90;3.47;;;;;;;15.28;52.83;94830.05;1690001;83;21061;-59
2021/06/02 07:29:13;;;;;;;7.10;3.80;;;;;;;15.33;51.97;94823.13;1709804;83;21225;-56
2021/06/02 07:31:40;;;;;;;6.53;3.80;;;;;;;15.34;53.21;94826.04;1690887;83;21043;-55
2021/06/02 07:34:07;;;;;;;9.50;3.83;;;;;;;15.38;52.23;94828.00;1701952;83;21033;-57
2021/06/02 07:36:35;;;;;;;4.45;3.70;;;;;;;15.42;52.42;94829.96;1712679;82;21643;-59
2021/06/02 07:39:04;;;;;;;11.60;3.87;;;;;;;15.47;52.29;94830.07;1656667;83;21015;-71
2021/06/02 07:41:31;;;;;;;4.12;3.70;;;;;;;15.47;52.65;94831.45;1694171;82;21025;-57
2021/06/02 07:43:58;;;;;;;7.17;3.00;;;;;;;15.60;53.38;94838.89;1705144;82;21139;-56
2021/06/02 07:46:25;;;;;;;7.80;3.40;;;;;;;15.65;51.72;94834.66;1706908;82;21073;-58
2021/06/02 07:48:52;;;;;;;6.72;4.85;;;;;;;15.57;50.83;94831.50;1711208;82;21000;-53
2021/06/02 07:51:19;;;;;;;7.33;3.50;;;;;;;15.50;51.27;94836.65;1711104;82;21038;-58
2021/06/02 07:53:47;;;;;;;7.12;3.27;;;;;;;15.48;51.47;94834.37;1702888;82;21025;-54
2021/06/02 07:56:15;;;;;;;5.12;4.33;;;;;;;15.58;50.78;94837.82;1718052;82;21432;-58
2021/06/02 07:58:42;;;;;;;5.95;3.30;;;;;;;15.63;50.65;94831.00;1716394;82;21050;-55
2021/06/02 08:01:09;;;;;;;7.60;4.15;;;;;;;15.65;50.37;94829.11;1721589;82;21042;-55
2021/06/02 08:03:35;;;;;;;3.37;2.58;;;;;;;15.76;50.75;94827.30;1704784;82;20994;-57
2021/06/02 08:06:05;;;;;;;3.87;3.25;;;;;;;15.76;48.60;94828.69;1735810;82;21096;-59
2021/06/02 08:08:31;;;;;;;162.92;67.87;;;;;;;15.63;50.06;94829.61;1714083;82;21288;-57
2021/06/02 08:11:00;;;;;;;12.53;7.00;;;;;;;15.62;50.00;94828.69;1713384;82;21002;-59
2021/06/02 08:13:27;;;;;;;8.25;3.42;;;;;;;15.63;48.60;94824.06;1705763;82;21689;-56
2021/06/02 08:15:55;;;;;;;4.70;2.77;;;;;;;15.60;49.41;94835.33;1713083;82;21071;-56
2021/06/02 08:18:23;;;;;;;7.03;3.85;;;;;;;15.48;48.87;94834.98;1705204;82;21131;-55
2021/06/02 08:20:50;;;;;;;5.03;4.08;;;;;;;15.38;47.93;94831.52;1707612;81;21926;-57
2021/06/02 08:23:17;;;;;;;6.00;3.87;;;;;;;15.36;49.34;94842.96;1709470;82;21015;-59
2021/06/02 08:25:44;;;;;;;4.65;3.75;;;;;;;15.31;49.67;94840.22;1707691;82;21072;-62
2021/06/02 08:28:11;;;;;;;3.40;3.10;;;;;;;15.31;50.32;94844.38;1710997;82;21053;-60
2021/06/02 08:30:40;;;;;;;6.35;3.15;;;;;;;15.37;49.03;94837.56;1720672;82;21046;-60
2021/06/02 08:33:08;;;;;;;7.85;3.35;;;;;;;15.48;49.21;94839.14;1710649;82;21014;-58
2021/06/02 08:35:35;;;;;;;8.08;3.17;;;;;;;15.54;49.47;94842.16;1699267;81;21470;-55
2021/06/02 08:38:03;;;;;;;7.95;3.10;;;;;;;15.57;48.97;94843.98;1711635;81;21101;-59
2021/06/02 08:40:30;;;;;;;6.33;3.17;;;;;;;15.55;48.42;94842.94;1719102;81;21039;-57
2021/06/02 08:42:56;;;;;;;5.62;3.85;;;;;;;15.42;49.28;94845.98;1709712;81;21053;-69
2021/06/02 08:45:25;;;;;;;9.60;3.95;;;;;;;15.27;49.83;94850.70;1722873;81;21090;-59
2021/06/02 08:47:51;;;;;;;3.50;3.15;;;;;;;15.16;49.34;94851.86;1713878;81;21117;-55
2021/06/02 08:50:23;;;;;;;6.87;3.72;;;;;;;15.11;48.28;94842.82;1722982;81;21042;-60
2021/06/02 08:52:48;;;;;;;4.65;3.22;;;;;;;15.11;48.14;94850.35;1685586;81;21564;-59
2021/06/02 08:55:19;;;;;;;7.67;3.42;;;;;;;15.14;47.96;94844.64;1707047;81;21032;-56
2021/06/02 08:57:48;;;;;;;6.95;3.05;;;;;;;15.23;47.90;94841.81;1718807;81;21769;-56
2021/06/02 09:00:22;;;;;;;4.58;3.05;;;;;;;15.27;46.99;94838.23;1714936;81;21105;-63
2021/06/02 09:02:54;;;;;;;4.85;3.08;;;;;;;15.22;46.44;94841.64;1708802;81;21022;-57
2021/06/02 09:05:19;;;;;;;5.15;3.33;;;;;;;15.15;48.45;94850.33;1709403;81;21177;-56
2021/06/02 09:07:52;;;;;;;4.42;3.10;;;;;;;15.20;47.69;94845.50;1719211;81;21021;-58
2021/06/02 09:10:19;;;;;;;;;;;;;;;15.18;46.95;94838.29;1746342;81;21718;-54
2021/06/02 09:12:53;;;;;;;5.25;3.05;;;;;;;15.14;46.41;94841.87;1731644;80;20239;-59
2021/06/02 09:15:21;;;;;;;9.43;3.20;;;;;;;15.08;45.80;94837.45;1714545;81;21209;-55
2021/06/02 09:18:03;;;;;;;2.92;2.58;;;;;;;15.03;46.81;94843.02;1707281;82;21109;-52
2021/06/02 09:20:42;;;;;;;6.20;3.45;;;;;;;14.97;46.00;94840.77;1721740;82;21050;-58
2021/06/02 09:23:30;;;;;;;6.30;3.17;;;;;;;14.82;47.32;94846.11;1729642;81;21325;-60
2021/06/02 09:26:15;;;;;;;6.22;3.40;;;;;;;14.74;48.12;94847.08;1700137;81;21145;-56
2021/06/02 09:28:58;;;;;;;5.70;2.98;;;;;;;14.62;47.99;94848.70;1738190;81;21214;-58
2021/06/02 09:31:41;;;;;;;3.70;2.85;;;;;;;14.60;48.68;94855.33;1726627;81;21001;-57
2021/06/02 09:34:15;;;;;;;3.35;2.92;;;;;;;14.64;49.56;94851.13;1720131;82;21600;-57
2021/06/02 09:36:44;;;;;;;44.10;25.10;;;;;;;14.75;49.13;94855.53;1709587;82;21750;-56
2021/06/02 09:39:15;;;;;;;9.88;6.40;;;;;;;14.88;48.73;94851.92;1708880;82;21482;-58
2021/06/02 09:41:47;;;;;;;;;;;;;;;14.95;47.71;94847.41;1719835;82;21497;-58
2021/06/02 09:44:22;;;;;;;6.47;3.50;;;;;;;15.05;47.40;94852.25;1710430;82;20809;-60
2021/06/02 09:46:59;;;;;;;6.47;4.87;;;;;;;15.15;47.08;94842.02;1669169;83;21073;-62
2021/06/02 09:49:29;;;;;;;5.85;4.10;;;;;;;15.28;47.50;94842.53;1671228;84;21150;-55
2021/06/02 09:51:58;;;;;;;9.48;4.65;;;;;;;15.37;46.65;94841.08;1709438;82;21088;-62
2021/06/02 09:54:25;;;;;;;8.85;4.03;;;;;;;15.45;46.53;94842.27;1705623;82;21563;-62
2021/06/02 09:56:53;;;;;;;4.22;3.42;;;;;;;15.52;46.31;94839.10;1705814;82;21082;-58
2021/06/02 09:59:20;;;;;;;7.92;3.50;;;;;;;15.57;46.05;94837.05;1700075;82;21059;-58
2021/06/02 10:02:00;;;;;;;5.25;3.30;;;;;;;15.56;46.29;94841.06;1705114;82;21167;-61
2021/06/02 10:04:39;;;;;;;6.67;2.95;;;;;;;15.51;46.08;94839.59;1710854;82;21056;-57
2021/06/02 10:07:21;;;;;;;5.67;4.10;;;;;;;15.37;46.68;94846.63;1711363;82;21037;-58
2021/06/02 10:09:51;;;;;;;11.63;6.10;;;;;;;15.15;46.27;94851.71;1718067;82;21470;-59
2021/06/02 10:12:18;;;;;;;6.45;4.78;;;;;;;14.90;46.92;94854.20;1637344;83;21066;-59
2021/06/02 10:14:57;;;;;;;6.40;3.17;;;;;;;14.79;48.27;94853.98;1631829;85;21068;-58
2021/06/02 10:17:38;;;;;;;12.65;5.20;;;;;;;14.83;49.58;94851.80;1722194;82;21029;-55
2021/06/02 10:20:09;;;;;;;7.67;3.25;;;;;;;14.96;48.33;94850.95;1731104;81;21053;-56
2021/06/02 10:22:36;;;;;;;4.78;3.30;;;;;;;15.11;47.35;94853.12;1695171;84;21025;-56
2021/06/02 10:25:06;;;;;;;3.90;3.50;;;;;;;15.34;48.01;94856.53;1690190;82;21583;-61
2021/06/02 10:27:33;;;;;;;5.15;4.62;;;;;;;15.59;48.87;94861.54;1734297;80;21151;-57
2021/06/02 10:30:00;;;;;;;10.48;4.37;;;;;;;15.78;45.27;94858.73;1729667;82;21476;-57
2021/06/02 10:32:27;;;;;;;4.08;2.70;;;;;;;15.77;45.40;94858.59;1708954;82;21191;-56
2021/06/02 10:34:56;;;;;;;6.62;3.17;;;;;;;15.78;45.98;94861.51;1701028;84;21089;-61
2021/06/02 10:37:23;;;;;;;4.70;4.30;;;;;;;15.68;43.59;94859.44;1696218;82;21076;-57
2021/06/02 10:40:12;;;;;;;8.20;4.00;;;;;;;15.56;45.00;94870.18;1710783;82;21133;-59
2021/06/02 10:43:14;;;;;;;7.50;4.00;;;;;;;15.49;44.55;94866.41;1746507;82;21631;-59
2021/06/02 10:45:48;;;;;;;13.80;3.92;;;;;;;15.48;44.68;94866.26;1747094;82;21084;-54
2021/06/02 10:48:14;;;;;;;;;;;;;;;15.63;44.68;94865.66;1750271;82;21002;-54
2021/06/02 10:50:43;;;;;;;8.43;3.35;;;;;;;15.91;44.91;94869.69;1747031;82;20373;-54
2021/06/02 10:53:25;;;;;;;17.65;4.90;;;;;;;16.10;43.89;94866.86;1746561;80;21840;-59
2021/06/02 10:55:56;;;;;;;10.50;9.30;;;;;;;16.15;44.10;94868.98;1719373;82;21010;-62
2021/06/02 10:58:46;;;;;;;5.80;4.10;;;;;;;16.15;44.72;94867.59;1746583;82;21089;-60
2021/06/02 11:01:18;;;;;;;3.80;3.05;;;;;;;16.12;44.47;94876.86;1704344;82;21691;-62
2021/06/02 11:03:50;;;;;;;4.40;3.58;;;;;;;15.97;43.65;94879.50;1718005;82;20982;-64
2021/06/02 11:06:25;;;;;;;6.35;3.17;;;;;;;15.91;43.86;94875.23;1707522;82;21905;-59
2021/06/02 11:09:05;;;;;;;9.03;3.55;;;;;;;15.92;44.80;94873.98;1688134;84;21607;-56
2021/06/02 11:11:41;;;;;;;6.30;3.80;;;;;;;16.05;44.64;94873.09;1694214;83;21505;-57
2021/06/02 11:14:20;;;;;;;5.33;4.08;;;;;;;16.24;43.75;94882.75;1703085;83;20998;-61
2021/06/02 11:16:54;;;;;;;5.17;2.92;;;;;;;16.30;43.93;94871.87;1706295;83;21038;-54
2021/06/02 11:19:31;;;;;;;5.40;3.50;;;;;;;16.24;44.38;94884.13;1725363;81;21073;-62
2021/06/02 11:22:00;;;;;;;4.78;3.12;;;;;;;16.17;44.80;94885.92;1701493;84;21072;-58
2021/06/02 11:24:41;;;;;;;8.75;3.58;;;;;;;16.05;44.64;94886.97;1707112;82;21485;-62
2021/06/02 11:27:17;;;;;;;3.37;3.00;;;;;;;15.91;45.86;94886.97;1679955;82;21068;-55
2021/06/02 11:29:57;;;;;;;3.62;2.87;;;;;;;15.79;45.66;94888.01;1714314;82;21097;-60
2021/06/02 11:32:33;;;;;;;8.75;2.90;;;;;;;15.65;46.67;94888.75;1677656;83;21487;-57
2021/06/02 11:35:06;;;;;;;5.05;2.83;;;;;;;15.64;46.69;94891.38;1689642;82;21153;-56
2021/06/02 11:37:35;;;;;;;5.50;3.25;;;;;;;15.56;46.37;94891.62;1690308;83;21593;-56
2021/06/02 11:40:10;;;;;;;3.27;2.75;;;;;;;15.49;46.31;94882.26;1681082;83;21051;-62
2021/06/02 11:42:48;;;;;;;5.40;2.80;;;;;;;15.48;46.17;94895.98;1650474;85;21053;-60
2021/06/02 11:45:22;;;;;;;6.67;3.15;;;;;;;15.60;47.15;94890.80;1650047;85;21547;-60
2021/06/02 11:47:54;;;;;;;13.93;3.12;;;;;;;15.94;48.22;94890.92;1667956;85;21066;-57
2021/06/02 11:50:23;;;;;;;15.38;3.10;;;;;;;16.36;47.52;94885.89;1672123;85;22254;-59
2021/06/02 11:52:56;;;;;;;5.55;3.27;;;;;;;16.68;46.67;94885.63;1707576;80;21078;-59
2021/06/02 11:55:26;;;;;;;3.40;2.77;;;;;;;16.86;44.78;94883.22;1701745;83;21041;-56
2021/06/02 11:57:53;;;;;;;11.35;4.03;;;;;;;16.91;44.20;94879.13;1685889;82;21541;-53
2021/06/02 12:00:24;;;;;;;10.82;5.03;;;;;;;16.97;44.59;94875.82;1728374;82;20974;-55
2021/06/02 12:02:58;;;;;;;5.28;3.62;;;;;;;17.00;44.41;94875.45;1719005;82;21518;-58
2021/06/02 12:05:31;;;;;;;7.45;4.67;;;;;;;17.10;44.56;94874.84;1710039;82;21467;-61
2021/06/02 12:08:08;;;;;;;8.55;3.35;;;;;;;17.16;44.70;94881.86;1702713;82;21037;-60
2021/06/02 12:10:41;;;;;;;7.08;3.42;;;;;;;17.08;43.54;94866.86;1712040;82;21137;-55
2021/06/02 12:13:27;;;;;;;5.50;2.55;;;;;;;17.01;43.83;94864.48;1713273;81;21057;-58
2021/06/02 12:15:58;;;;;;;4.10;2.98;;;;;;;16.96;44.03;94868.73;1712659;82;20970;-58
2021/06/02 12:18:40;;;;;;;6.62;2.85;;;;;;;16.91;44.48;94872.18;1702076;82;22223;-60
2021/06/02 12:21:22;;;;;;;8.00;2.70;;;;;;;16.92;45.26;94877.13;1699545;82;21026;-59
2021/06/02 12:24:02;;;;;;;9.08;3.85;;;;;;;16.92;45.28;94870.18;1728036;82;21309;-58
2021/06/02 12:26:39;;;;;;;8.38;3.50;;;;;;;16.76;45.03;94875.62;1709805;80;21086;-62